createdAt,value
2019-06-08T00:00:15.249Z,99381.19
2019-06-08T00:02:44.244Z,99385.53
2019-06-08T00:05:14.625Z,99385.20
2019-06-08T00:07:43.653Z,99389.78
2019-06-08T00:10:12.887Z,99387.86
2019-06-08T00:12:41.683Z,99387.78
2019-06-08T00:15:11.246Z,99387.02
2019-06-08T00:17:40.052Z,99395.66
2019-06-08T00:20:10.564Z,99385.91
2019-06-08T00:22:39.414Z,99383.72
2019-06-08T00:25:08.683Z,99392.22
2019-06-08T00:27:37.507Z,99395.81
2019-06-08T00:30:11.443Z,99399.53
2019-06-08T00:32:39.447Z,99392.98
2019-06-08T00:35:08.251Z,99394.28
2019-06-08T00:37:37.083Z,99391.51
2019-06-08T00:40:08.212Z,99389.34
2019-06-08T00:42:37.047Z,99391.52
2019-06-08T00:45:09.166Z,99394.42
2019-06-08T00:47:47.386Z,99394.04
2019-06-08T00:50:09.019Z,99389.35
2019-06-08T00:52:37.846Z,99392.17
2019-06-08T00:55:07.083Z,99390.11
2019-06-08T00:57:35.965Z,99391.02
2019-06-08T01:00:10.781Z,99390.33
2019-06-08T01:02:37.323Z,99388.75
2019-06-08T01:05:07.394Z,99396.86
2019-06-08T01:07:36.212Z,99395.50
2019-06-08T01:10:08.055Z,99388.05
2019-06-08T01:12:36.934Z,99391.69
2019-06-08T01:15:09.756Z,99398.52
2019-06-08T01:17:38.819Z,99398.21
2019-06-08T01:20:09.165Z,99390.98
2019-06-08T01:22:37.971Z,99391.77
2019-06-08T01:25:07.283Z,99396.48
2019-06-08T01:27:36.165Z,99388.44
2019-06-08T01:30:07.404Z,99394.66
2019-06-08T01:32:36.252Z,99395.20
2019-06-08T01:35:05.979Z,99391.53
2019-06-08T01:37:34.843Z,99394.59
2019-06-08T01:40:05.173Z,99394.44
2019-06-08T01:42:34.134Z,99401.11
2019-06-08T01:45:03.724Z,99397.58
2019-06-08T01:47:32.731Z,99397.63
2019-06-08T01:50:01.565Z,99400.03
2019-06-08T01:52:30.916Z,99399.59
2019-06-08T01:54:59.844Z,99395.14
2019-06-08T01:57:29.329Z,99395.28
2019-06-08T01:59:58.325Z,99404.57
2019-06-08T02:02:27.874Z,99396.21
2019-06-08T02:04:56.844Z,99400.95
2019-06-08T02:07:26.335Z,99403.26
2019-06-08T02:09:55.283Z,99399.45
2019-06-08T02:12:24.779Z,99402.61
2019-06-08T02:14:53.763Z,99401.80
2019-06-08T02:17:22.610Z,99399.58
2019-06-08T02:19:51.523Z,99400.05
2019-06-08T02:22:20.323Z,99407.38
2019-06-08T02:24:49.093Z,99407.33
2019-06-08T02:27:17.965Z,99411.73
2019-06-08T02:29:46.763Z,99423.39
2019-06-08T02:32:15.573Z,99424.77
2019-06-08T02:34:44.407Z,99418.98
2019-06-08T02:37:13.251Z,99423.91
2019-06-08T02:39:42.206Z,99421.36
2019-06-08T02:42:11.008Z,99426.81
2019-06-08T02:44:40.597Z,99424.67
2019-06-08T02:47:09.654Z,99423.95
2019-06-08T02:49:39.798Z,99426.74
2019-06-08T02:52:08.774Z,99429.48
2019-06-08T02:54:39.450Z,99430.93
2019-06-08T02:57:08.445Z,99435.73
2019-06-08T02:59:40.599Z,99441.59
2019-06-08T03:02:08.985Z,99446.87
2019-06-08T03:04:41.105Z,99445.30
2019-06-08T03:07:10.934Z,99445.67
2019-06-08T03:09:41.185Z,99447.91
2019-06-08T03:12:10.134Z,99453.31
2019-06-08T03:14:42.144Z,99457.31
2019-06-08T03:17:11.098Z,99453.64
2019-06-08T03:19:40.406Z,99459.52
2019-06-08T03:22:11.119Z,99459.75
2019-06-08T03:24:41.508Z,99467.92
2019-06-08T03:27:10.526Z,99472.24
2019-06-08T03:29:41.296Z,99472.86
2019-06-08T03:32:09.833Z,99481.09
2019-06-08T03:34:46.075Z,99491.87
2019-06-08T03:37:09.123Z,99488.90
2019-06-08T03:39:38.946Z,99495.58
2019-06-08T03:42:08.045Z,99495.19
2019-06-08T03:44:38.431Z,99496.19
2019-06-08T03:47:07.444Z,99493.09
2019-06-08T03:49:42.854Z,99502.23
2019-06-08T03:52:06.734Z,99501.98
2019-06-08T03:54:36.164Z,99503.11
2019-06-08T03:57:06.086Z,99513.16
2019-06-08T03:59:36.067Z,99513.21
2019-06-08T04:02:05.131Z,99511.73
2019-06-08T04:04:33.925Z,99515.84
2019-06-08T04:07:02.701Z,99518.95
2019-06-08T04:09:31.631Z,99515.44
2019-06-08T04:12:00.483Z,99517.40
2019-06-08T04:14:29.244Z,99523.80
2019-06-08T04:16:58.046Z,99520.19
2019-06-08T04:19:26.926Z,99522.05
2019-06-08T04:21:55.767Z,99524.52
2019-06-08T04:24:24.576Z,99526.47
2019-06-08T04:26:53.419Z,99540.84
2019-06-08T04:29:22.244Z,99541.11
2019-06-08T04:31:51.092Z,99540.42
2019-06-08T04:34:19.889Z,99541.32
2019-06-08T04:36:50.426Z,99541.19
2019-06-08T04:39:19.451Z,99545.36
2019-06-08T04:41:48.282Z,99545.62
2019-06-08T04:44:17.084Z,99545.09
2019-06-08T04:46:47.870Z,99553.41
2019-06-08T04:49:16.325Z,99555.58
2019-06-08T04:51:46.817Z,99548.58
2019-06-08T04:54:15.655Z,99555.69
2019-06-08T04:56:44.949Z,99562.25
2019-06-08T04:59:13.925Z,99563.11
2019-06-08T05:01:43.096Z,99566.42
2019-06-08T05:04:12.056Z,99564.45
2019-06-08T05:06:41.073Z,99568.83
2019-06-08T05:09:09.925Z,99574.25
2019-06-08T05:11:39.060Z,99580.37
2019-06-08T05:14:08.084Z,99584.69
2019-06-08T05:16:36.860Z,99584.25
2019-06-08T05:19:05.689Z,99595.09
2019-06-08T05:21:34.572Z,99591.56
2019-06-08T05:24:03.376Z,99596.75
2019-06-08T05:26:32.168Z,99600.95
2019-06-08T05:29:01.046Z,99607.33
2019-06-08T05:31:29.846Z,99604.89
2019-06-08T05:33:58.648Z,99614.02
2019-06-08T05:36:27.444Z,99618.72
2019-06-08T05:38:56.291Z,99617.12
2019-06-08T05:41:25.203Z,99624.39
2019-06-08T05:43:54.006Z,99631.81
2019-06-08T05:46:22.934Z,99640.80
2019-06-08T05:48:51.726Z,99640.78
2019-06-08T05:51:20.527Z,99638.73
2019-06-08T05:53:50.174Z,99638.21
2019-06-08T05:56:19.244Z,99637.58
2019-06-08T05:58:48.323Z,99643.00
2019-06-08T06:01:17.091Z,99651.92
2019-06-08T06:03:46.565Z,99658.13
2019-06-08T06:06:15.522Z,99669.05
2019-06-08T06:08:44.652Z,99674.80
2019-06-08T06:11:13.523Z,99679.41
2019-06-08T06:13:42.718Z,99686.66
2019-06-08T06:16:11.643Z,99686.36
2019-06-08T06:18:40.982Z,99684.72
2019-06-08T06:21:12.162Z,99692.39
2019-06-08T06:23:41.144Z,99719.37
2019-06-08T06:26:10.247Z,99714.88
2019-06-08T06:28:39.046Z,99724.76
2019-06-08T06:31:07.804Z,99724.81
2019-06-08T06:33:36.698Z,99729.30
2019-06-08T06:36:05.843Z,99729.67
2019-06-08T06:38:34.646Z,99734.80
2019-06-08T06:41:03.422Z,99734.59
2019-06-08T06:43:32.363Z,99728.89
2019-06-08T06:46:01.172Z,99724.84
2019-06-08T06:48:29.966Z,99728.45
2019-06-08T06:50:58.884Z,99726.77
2019-06-08T06:53:27.643Z,99725.09
2019-06-08T06:55:56.404Z,99724.58
2019-06-08T06:58:25.214Z,99735.44
2019-06-08T07:00:54.005Z,99731.43
2019-06-08T07:03:22.775Z,99740.86
2019-06-08T07:05:52.008Z,99745.21
2019-06-08T07:08:21.100Z,99742.20
2019-06-08T07:10:50.842Z,99748.50
2019-06-08T07:13:19.805Z,99756.99
2019-06-08T07:15:52.675Z,99776.86
2019-06-08T07:18:19.130Z,99778.05
2019-06-08T07:20:48.172Z,99777.75
2019-06-08T07:23:17.044Z,99784.60
2019-06-08T07:25:46.269Z,99780.36
2019-06-08T07:28:15.283Z,99795.58
2019-06-08T07:30:44.137Z,99802.34
2019-06-08T07:33:12.937Z,99801.30
2019-06-08T07:35:41.684Z,99814.06
2019-06-08T07:38:10.479Z,99825.93
2019-06-08T07:40:39.325Z,99817.36
2019-06-08T07:43:08.085Z,99844.42
2019-06-08T07:45:36.966Z,99822.19
2019-06-08T07:48:05.885Z,99828.37
2019-06-08T07:50:34.684Z,99826.34
2019-06-08T07:53:03.580Z,99840.20
2019-06-08T07:55:32.377Z,99834.86
2019-06-08T07:58:01.283Z,99831.27
2019-06-08T08:00:30.123Z,99839.50
2019-06-08T08:02:58.934Z,99837.80
2019-06-08T08:05:27.767Z,99833.28
2019-06-08T08:07:56.892Z,99840.27
2019-06-08T08:10:25.851Z,99836.73
2019-06-08T08:12:56.842Z,99836.97
2019-06-08T08:15:25.804Z,99845.42
2019-06-08T08:17:55.506Z,99843.19
2019-06-08T08:20:24.364Z,99853.64
2019-06-08T08:22:57.604Z,99851.88
2019-06-08T08:25:24.212Z,99856.34
2019-06-08T08:27:53.487Z,99865.83
2019-06-08T08:30:24.244Z,99847.65
2019-06-08T08:32:54.584Z,99859.52
2019-06-08T08:35:23.642Z,99848.02
2019-06-08T08:37:56.298Z,99854.92
2019-06-08T08:40:22.923Z,99857.12
2019-06-08T08:42:52.359Z,99853.86
2019-06-08T08:45:22.723Z,99850.80
2019-06-08T08:47:55.984Z,99861.63
2019-06-08T08:50:22.122Z,99864.89
2019-06-08T08:52:52.273Z,99872.28
2019-06-08T08:55:21.241Z,99860.52
2019-06-08T08:57:50.719Z,99861.10
2019-06-08T09:00:21.922Z,99873.13
2019-06-08T09:03:10.912Z,99874.08
2019-06-08T09:05:21.363Z,99867.75
2019-06-08T09:07:52.031Z,99872.16
2019-06-08T09:10:20.765Z,99875.85
2019-06-08T09:12:49.485Z,99878.75
2019-06-08T09:15:19.273Z,99884.90
2019-06-08T09:17:48.404Z,99876.71
2019-06-08T09:20:19.250Z,99875.95
2019-06-08T09:22:56.571Z,99875.81
2019-06-08T09:25:19.882Z,99884.39
2019-06-08T09:27:48.722Z,99886.98
2019-06-08T09:30:18.626Z,99891.20
2019-06-08T09:32:47.941Z,99900.44
2019-06-08T09:35:18.635Z,99891.20
2019-06-08T09:37:48.537Z,99893.30
2019-06-08T09:40:17.682Z,99892.22
2019-06-08T09:42:46.445Z,99904.20
2019-06-08T09:45:18.042Z,99906.53
2019-06-08T09:47:47.862Z,99904.66
2019-06-08T09:50:18.530Z,99902.56
2019-06-08T09:52:48.047Z,99900.49
2019-06-08T09:55:18.112Z,99910.08
2019-06-08T09:57:48.516Z,99926.05
2019-06-08T10:00:21.426Z,99933.89
2019-06-08T10:02:48.464Z,99919.50
2019-06-08T10:05:18.543Z,99940.08
2019-06-08T10:07:48.755Z,99966.34
2019-06-08T10:10:18.220Z,99952.09
2019-06-08T10:12:48.369Z,99955.83
2019-06-08T10:15:17.950Z,99953.68
2019-06-08T10:17:47.613Z,99965.17
2019-06-08T10:20:18.381Z,99967.20
2019-06-08T10:22:50.026Z,99982.30
2019-06-08T10:25:18.000Z,99986.30
2019-06-08T10:27:46.777Z,99990.93
2019-06-08T10:30:15.882Z,99994.20
2019-06-08T10:32:44.652Z,99989.72
2019-06-08T10:35:20.631Z,99995.83
2019-06-08T10:37:47.838Z,100001.22
2019-06-08T10:40:18.718Z,100005.28
2019-06-08T10:42:48.240Z,100013.77
2019-06-08T10:45:18.562Z,100014.47
2019-06-08T10:47:48.023Z,100012.13
2019-06-08T10:50:19.138Z,100009.13
2019-06-08T10:52:48.203Z,100005.69
2019-06-08T10:55:18.577Z,100015.97
2019-06-08T10:57:47.830Z,100024.02
2019-06-08T11:00:23.986Z,100021.38
2019-06-08T11:02:53.105Z,100025.47
2019-06-08T11:05:21.995Z,100038.06
2019-06-08T11:07:50.883Z,100054.65
2019-06-08T11:10:19.762Z,100054.64
2019-06-08T11:12:48.672Z,100058.91
2019-06-08T11:15:17.695Z,100034.28
2019-06-08T11:17:46.567Z,100079.70
2019-06-08T11:20:15.543Z,100092.33
2019-06-08T11:22:44.377Z,100073.27
2019-06-08T11:25:15.863Z,100079.20
2019-06-08T11:27:43.729Z,100085.59
2019-06-08T11:30:20.469Z,100093.77
2019-06-08T11:32:43.716Z,100082.61
2019-06-08T11:35:12.746Z,100089.97
2019-06-08T11:37:41.584Z,100089.30
2019-06-08T11:40:12.506Z,100082.02
2019-06-08T11:42:41.164Z,100093.33
2019-06-08T11:45:12.937Z,100101.04
2019-06-08T11:47:41.366Z,100112.77
2019-06-08T11:50:13.219Z,100121.05
2019-06-08T11:52:41.924Z,100120.05
2019-06-08T11:55:12.726Z,100114.81
2019-06-08T11:57:42.882Z,100138.66
2019-06-08T12:00:23.701Z,100128.05
2019-06-08T12:02:45.086Z,100107.86
2019-06-08T12:05:14.343Z,100130.36
2019-06-08T12:07:43.163Z,100131.22
2019-06-08T12:10:12.997Z,100123.52
2019-06-08T12:12:42.562Z,100127.41
2019-06-08T12:15:13.280Z,100137.24
2019-06-08T12:17:41.987Z,100139.96
2019-06-08T12:20:15.996Z,100150.38
2019-06-08T12:22:41.602Z,100153.97
2019-06-08T12:25:10.406Z,100156.54
2019-06-08T12:27:40.196Z,100144.13
2019-06-08T12:30:17.379Z,100152.33
2019-06-08T12:32:39.844Z,100147.86
2019-06-08T12:35:10.874Z,100156.16
2019-06-08T12:37:39.324Z,100164.55
2019-06-08T12:40:11.476Z,100158.28
2019-06-08T12:42:38.927Z,100166.47
2019-06-08T12:45:09.214Z,100161.89
2019-06-08T12:47:38.366Z,100174.06
2019-06-08T12:50:09.039Z,100161.39
2019-06-08T12:52:39.154Z,100170.01
2019-06-08T12:55:14.300Z,100173.17
2019-06-08T12:57:39.747Z,100173.28
2019-06-08T13:00:10.273Z,100171.83
2019-06-08T13:02:39.605Z,100166.45
2019-06-08T13:05:13.302Z,100162.06
2019-06-08T13:07:39.405Z,100165.23
2019-06-08T13:10:08.825Z,100181.77
2019-06-08T13:12:40.632Z,100173.69
2019-06-08T13:15:10.058Z,100173.63
2019-06-08T13:17:39.524Z,100186.25
2019-06-08T13:20:22.149Z,100186.16
2019-06-08T13:22:49.884Z,100198.31
2019-06-08T13:25:31.965Z,100197.23
2019-06-08T13:27:49.244Z,100192.86
2019-06-08T13:30:25.341Z,100192.92
2019-06-08T13:32:49.173Z,100199.03
2019-06-08T13:35:20.545Z,100194.03
2019-06-08T13:37:48.604Z,100187.25
2019-06-08T13:40:20.701Z,100188.22
2019-06-08T13:42:51.186Z,100184.05
2019-06-08T13:45:21.767Z,100186.13
2019-06-08T13:47:50.548Z,100189.14
2019-06-08T13:50:22.060Z,100194.88
2019-06-08T13:52:50.765Z,100197.50
2019-06-08T13:55:36.276Z,100207.22
2019-06-08T13:57:50.044Z,100205.62
2019-06-08T14:00:23.150Z,100197.78
2019-06-08T14:02:51.283Z,100200.59
2019-06-08T14:05:27.709Z,100204.44
2019-06-08T14:07:53.651Z,100214.67
2019-06-08T14:10:40.331Z,100213.52
2019-06-08T14:13:09.331Z,100217.95
2019-06-08T14:15:38.413Z,100219.61
2019-06-08T14:18:08.827Z,100220.76
2019-06-08T14:20:38.798Z,100217.90
2019-06-08T14:23:09.153Z,100219.87
2019-06-08T14:25:49.735Z,100211.11
2019-06-08T14:28:08.844Z,100208.33
2019-06-08T14:30:37.914Z,100208.33
2019-06-08T14:33:08.297Z,100205.05
2019-06-08T14:35:37.406Z,100210.09
2019-06-08T14:38:06.163Z,100214.66
2019-06-08T14:40:37.422Z,100214.87
2019-06-08T14:43:05.445Z,100210.69
2019-06-08T14:45:34.324Z,100205.77
2019-06-08T14:48:03.093Z,100202.00
2019-06-08T14:50:31.843Z,100207.42
2019-06-08T14:53:00.604Z,100205.47
2019-06-08T14:55:33.895Z,100198.27
2019-06-08T14:58:00.005Z,100199.60
2019-06-08T15:00:29.686Z,100195.67
2019-06-08T15:02:59.271Z,100191.07
2019-06-08T15:05:31.616Z,100188.91
2019-06-08T15:08:00.940Z,100188.97
2019-06-08T15:10:31.285Z,100197.77
2019-06-08T15:13:00.252Z,100194.34
2019-06-08T15:15:32.092Z,100195.05
2019-06-08T15:17:59.685Z,100195.27
2019-06-08T15:20:28.726Z,100185.44
2019-06-08T15:22:58.153Z,100190.39
2019-06-08T15:25:29.474Z,100187.09
2019-06-08T15:27:58.182Z,100183.97
2019-06-08T15:30:30.935Z,100181.15
2019-06-08T15:32:58.924Z,100175.69
2019-06-08T15:35:27.845Z,100177.95
2019-06-08T15:37:58.521Z,100176.63
2019-06-08T15:40:27.841Z,100167.39
2019-06-08T15:42:58.515Z,100163.53
2019-06-08T15:45:30.989Z,100165.50
2019-06-08T15:47:58.640Z,100161.98
2019-06-08T15:50:28.455Z,100162.31
2019-06-08T15:52:59.779Z,100167.02
2019-06-08T15:55:31.354Z,100160.66
2019-06-08T15:57:58.682Z,100169.41
2019-06-08T16:00:30.028Z,100168.67
2019-06-08T16:02:58.645Z,100167.49
2019-06-08T16:05:27.875Z,100167.14
2019-06-08T16:07:56.648Z,100160.67
2019-06-08T16:10:26.282Z,100159.52
2019-06-08T16:12:55.444Z,100154.50
2019-06-08T16:15:24.859Z,100160.73
2019-06-08T16:17:53.844Z,100171.00
2019-06-08T16:20:22.694Z,100178.58
2019-06-08T16:22:51.485Z,100169.63
2019-06-08T16:25:20.296Z,100171.30
2019-06-08T16:27:49.043Z,100169.46
2019-06-08T16:30:18.245Z,100168.84
2019-06-08T16:32:47.045Z,100167.52
2019-06-08T16:35:16.205Z,100167.60
2019-06-08T16:37:45.043Z,100176.69
2019-06-08T16:40:14.003Z,100171.84
2019-06-08T16:42:42.774Z,100170.56
2019-06-08T16:45:11.852Z,100175.41
2019-06-08T16:47:43.350Z,100170.39
2019-06-08T16:50:24.037Z,100168.04
2019-06-08T16:52:42.283Z,100167.02
2019-06-08T16:55:11.346Z,100172.34
2019-06-08T16:57:41.267Z,100172.37
2019-06-08T17:00:30.793Z,100184.70
2019-06-08T17:02:41.323Z,100188.23
2019-06-08T17:05:10.445Z,100183.52
2019-06-08T17:07:39.722Z,100179.13
2019-06-08T17:10:09.003Z,100181.73
2019-06-08T17:12:39.076Z,100181.30
2019-06-08T17:15:08.166Z,100181.83
2019-06-08T17:17:38.484Z,100175.95
2019-06-08T17:20:07.645Z,100178.16
2019-06-08T17:22:36.893Z,100171.84
2019-06-08T17:25:08.807Z,100178.61
2019-06-08T17:27:38.838Z,100172.83
2019-06-08T17:30:09.300Z,100176.33
2019-06-08T17:32:40.407Z,100183.42
2019-06-08T17:35:09.254Z,100186.83
2019-06-08T17:37:38.227Z,100194.19
2019-06-08T17:40:08.173Z,100197.66
2019-06-08T17:42:37.689Z,100202.28
2019-06-08T17:45:08.122Z,100197.00
2019-06-08T17:47:36.922Z,100203.83
2019-06-08T17:50:09.403Z,100209.32
2019-06-08T17:52:38.911Z,100207.23
2019-06-08T17:55:08.284Z,100211.63
2019-06-08T17:57:44.785Z,100215.32
2019-06-08T18:00:09.786Z,100221.67
2019-06-08T18:02:41.919Z,100218.23
2019-06-08T18:05:10.682Z,100218.34
2019-06-08T18:07:41.959Z,100225.47
2019-06-08T18:10:10.525Z,100227.39
2019-06-08T18:12:42.855Z,100224.37
2019-06-08T18:15:10.528Z,100223.52
2019-06-08T18:17:41.994Z,100223.77
2019-06-08T18:20:13.542Z,100234.52
2019-06-08T18:22:44.341Z,100233.70
2019-06-08T18:25:14.330Z,100244.15
2019-06-08T18:28:01.773Z,100237.91
2019-06-08T18:30:18.766Z,100246.02
2019-06-08T18:32:48.473Z,100249.78
2019-06-08T18:35:18.208Z,100258.64
2019-06-08T18:37:48.652Z,100259.47
2019-06-08T18:40:19.562Z,100267.31
2019-06-08T18:42:49.022Z,100266.16
2019-06-08T18:45:18.722Z,100268.75
2019-06-08T18:47:48.374Z,100273.05
2019-06-08T18:50:17.924Z,100275.28
2019-06-08T18:52:49.448Z,100278.89
2019-06-08T18:55:18.205Z,100281.88
2019-06-08T18:57:49.018Z,100287.48
2019-06-08T19:00:21.322Z,100282.52
2019-06-08T19:02:54.635Z,100289.37
2019-06-08T19:05:21.186Z,100291.70
2019-06-08T19:07:52.552Z,100297.59
2019-06-08T19:10:33.291Z,100306.70
2019-06-08T19:13:02.088Z,100313.50
2019-06-08T19:15:39.828Z,100308.48
2019-06-08T19:18:08.235Z,100317.39
2019-06-08T19:20:42.247Z,100320.56
2019-06-08T19:23:09.077Z,100325.34
2019-06-08T19:25:41.271Z,100339.39
2019-06-08T19:28:08.802Z,100344.22
2019-06-08T19:30:40.352Z,100344.11
2019-06-08T19:33:08.087Z,100346.34
2019-06-08T19:35:37.648Z,100349.30
2019-06-08T19:38:07.532Z,100352.36
2019-06-08T19:40:37.915Z,100354.64
2019-06-08T19:43:07.557Z,100352.95
2019-06-08T19:45:39.953Z,100358.23
2019-06-08T19:48:08.271Z,100364.43
2019-06-08T19:50:38.612Z,100367.80
2019-06-08T19:53:07.802Z,100367.25
2019-06-08T19:55:36.572Z,100364.56
2019-06-08T19:58:06.320Z,100367.56
2019-06-08T20:00:40.076Z,100362.60
2019-06-08T20:03:07.699Z,100358.37
2019-06-08T20:05:37.798Z,100365.64
2019-06-08T20:08:08.059Z,100369.95
2019-06-08T20:10:37.124Z,100367.09
2019-06-08T20:13:07.835Z,100372.45
2019-06-08T20:15:43.511Z,100379.81
2019-06-08T20:18:07.045Z,100373.41
2019-06-08T20:20:38.019Z,100381.53
2019-06-08T20:23:09.566Z,100381.64
2019-06-08T20:25:38.140Z,100388.36
2019-06-08T20:28:07.973Z,100391.02
2019-06-08T20:30:37.002Z,100404.95
2019-06-08T20:33:08.021Z,100410.89
2019-06-08T20:35:37.626Z,100410.59
2019-06-08T20:38:08.345Z,100413.67
2019-06-08T20:40:38.286Z,100417.83
2019-06-08T20:43:07.402Z,100413.99
2019-06-08T20:45:37.509Z,100421.47
2019-06-08T20:48:06.559Z,100417.08
2019-06-08T20:50:37.650Z,100419.27
2019-06-08T20:53:08.418Z,100421.00
2019-06-08T20:55:40.057Z,100416.64
2019-06-08T20:58:08.052Z,100427.06
2019-06-08T21:00:37.784Z,100428.98
2019-06-08T21:03:08.160Z,100427.42
2019-06-08T21:05:37.244Z,100431.34
2019-06-08T21:08:08.194Z,100430.05
2019-06-08T21:10:37.799Z,100426.46
2019-06-08T21:13:07.559Z,100423.80
2019-06-08T21:15:38.223Z,100421.56
2019-06-08T21:18:07.931Z,100424.33
2019-06-08T21:20:37.756Z,100430.23
2019-06-08T21:23:08.138Z,100430.92
2019-06-08T21:25:37.337Z,100437.47
2019-06-08T21:28:07.839Z,100439.66
2019-06-08T21:30:37.749Z,100437.39
2019-06-08T21:33:08.279Z,100441.30
2019-06-08T21:35:37.381Z,100435.34
2019-06-08T21:38:20.235Z,100429.68
2019-06-08T21:40:37.603Z,100439.25
2019-06-08T21:43:08.157Z,100438.31
2019-06-08T21:45:38.053Z,100442.80
2019-06-08T21:48:07.582Z,100441.66
2019-06-08T21:50:37.096Z,100455.41
2019-06-08T21:53:07.715Z,100457.06
2019-06-08T21:55:38.022Z,100463.30
2019-06-08T21:58:08.015Z,100462.17
2019-06-08T22:00:42.748Z,100460.36
2019-06-08T22:03:08.563Z,100460.67
2019-06-08T22:05:37.827Z,100463.48
2019-06-08T22:08:08.028Z,100469.85
2019-06-08T22:10:37.680Z,100474.36
2019-06-08T22:13:08.613Z,100472.95
2019-06-08T22:15:37.937Z,100482.08
2019-06-08T22:18:08.025Z,100481.72
2019-06-08T22:20:38.270Z,100485.97
2019-06-08T22:23:07.466Z,100486.49
2019-06-08T22:25:38.561Z,100493.80
2019-06-08T22:28:07.354Z,100496.34
2019-06-08T22:30:42.568Z,100494.06
2019-06-08T22:33:06.802Z,100493.64
2019-06-08T22:35:37.351Z,100497.15
2019-06-08T22:38:08.389Z,100500.66
2019-06-08T22:40:37.104Z,100504.02
2019-06-08T22:43:08.088Z,100505.11
2019-06-08T22:45:37.474Z,100510.94
2019-06-08T22:48:08.266Z,100512.70
2019-06-08T22:50:38.237Z,100511.55
2019-06-08T22:53:08.039Z,100514.38
2019-06-08T22:55:38.213Z,100515.41
2019-06-08T22:58:07.765Z,100515.11
2019-06-08T23:00:51.317Z,100513.59
2019-06-08T23:03:08.580Z,100518.29
2019-06-08T23:05:37.711Z,100518.55
2019-06-08T23:08:09.357Z,100515.23
2019-06-08T23:10:37.486Z,100517.63
2019-06-08T23:13:08.567Z,100510.84
2019-06-08T23:15:37.048Z,100517.12
2019-06-08T23:18:06.806Z,100514.03
2019-06-08T23:20:37.141Z,100512.02
2019-06-08T23:23:08.671Z,100516.02
2019-06-08T23:25:37.253Z,100517.63
2019-06-08T23:28:09.660Z,100522.81
2019-06-08T23:30:38.255Z,100519.88
2019-06-08T23:33:11.535Z,100524.41
2019-06-08T23:36:07.710Z,100521.23
2019-06-08T23:38:09.450Z,100530.07
2019-06-08T23:40:38.482Z,100522.44
2019-06-08T23:43:08.232Z,100522.74
2019-06-08T23:45:37.930Z,100522.64
2019-06-08T23:48:07.043Z,100517.23
2019-06-08T23:50:37.931Z,100531.88
2019-06-08T23:53:09.174Z,100534.12
2019-06-08T23:55:37.278Z,100528.92
2019-06-08T23:58:09.488Z,100526.62
